Terminal Aerodrome Forecast
Issued by NWS

Home | Current Version | Previous Version | Text Only | Print | Product List | Glossary On
Versions: 1 2 3 4 5 6 7 8 9 10 11 12 13 14 15 16 17 18 19 20 21 22 23 24 25
935
FTUS41 KALY 310814 AAA
TAFPSF
TAF AMD
KPSF 310814Z 3108/0106 23005KT P6SM BCFG SCT002
      TEMPO 3108/3112 1SM BR BKN002
     FM311200 29009KT P6SM FEW002
     FM311600 29010G20KT P6SM SKC
     FM010000 32003KT P6SM SKC=

USA.gov is the U.S. government's official web portal to all federal, state and local government web resources and services.